sensor_id;sensor_type;location;lat;lon;timestamp;pressure;altitude;pressure_sealevel;temperature;humidity
18231;BME280;9240;49.966;21.994;2024-02-23T00:00:26;97301.75;;;8.37;72.21
18231;BME280;9240;49.966;21.994;2024-02-23T00:02:52;97293.28;;;8.35;72.66
18231;BME280;9240;49.966;21.994;2024-02-23T00:05:17;97290.97;;;8.32;72.55
18231;BME280;9240;49.966;21.994;2024-02-23T00:07:43;97286.91;;;8.29;72.16
18231;BME280;9240;49.966;21.994;2024-02-23T00:10:09;97281.03;;;8.27;72.02
18231;BME280;9240;49.966;21.994;2024-02-23T00:12:34;97270.97;;;8.24;72.05
18231;BME280;9240;49.966;21.994;2024-02-23T00:15:00;97272.88;;;8.22;72.10
18231;BME280;9240;49.966;21.994;2024-02-23T00:17:27;97260.75;;;8.23;71.90
18231;BME280;9240;49.966;21.994;2024-02-23T00:19:52;97272.22;;;8.20;72.25
18231;BME280;9240;49.966;21.994;2024-02-23T00:22:18;97270.72;;;8.17;72.45
18231;BME280;9240;49.966;21.994;2024-02-23T00:24:43;97264.06;;;8.15;72.31
18231;BME280;9240;49.966;21.994;2024-02-23T00:27:09;97262.28;;;8.15;72.46
18231;BME280;9240;49.966;21.994;2024-02-23T00:29:35;97269.78;;;8.18;72.45
18231;BME280;9240;49.966;21.994;2024-02-23T00:32:00;97259.91;;;8.22;71.66
18231;BME280;9240;49.966;21.994;2024-02-23T00:34:27;97268.38;;;8.24;71.87
18231;BME280;9240;49.966;21.994;2024-02-23T00:36:53;97248.16;;;8.28;71.55
18231;BME280;9240;49.966;21.994;2024-02-23T00:39:18;97254.81;;;8.30;71.67
18231;BME280;9240;49.966;21.994;2024-02-23T00:41:44;97248.41;;;8.34;71.52
18231;BME280;9240;49.966;21.994;2024-02-23T00:44:09;97241.28;;;8.37;71.37
18231;BME280;9240;49.966;21.994;2024-02-23T00:46:35;97241.28;;;8.37;71.30
18231;BME280;9240;49.966;21.994;2024-02-23T00:49:00;97247.94;;;8.39;71.27
18231;BME280;9240;49.966;21.994;2024-02-23T00:51:27;97238.25;;;8.41;71.07
18231;BME280;9240;49.966;21.994;2024-02-23T00:53:53;97219.94;;;8.43;71.19
18231;BME280;9240;49.966;21.994;2024-02-23T00:56:18;97227.72;;;8.43;71.16
18231;BME280;9240;49.966;21.994;2024-02-23T00:58:44;97237.00;;;8.45;70.78
18231;BME280;9240;49.966;21.994;2024-02-23T01:01:10;97232.59;;;8.46;70.58
18231;BME280;9240;49.966;21.994;2024-02-23T01:03:35;97240.22;;;8.47;70.81
18231;BME280;9240;49.966;21.994;2024-02-23T01:06:01;97230.72;;;8.48;70.54
18231;BME280;9240;49.966;21.994;2024-02-23T01:08:28;97233.16;;;8.49;70.56
18231;BME280;9240;49.966;21.994;2024-02-23T01:10:53;97236.56;;;8.50;70.71
18231;BME280;9240;49.966;21.994;2024-02-23T01:13:19;97239.00;;;8.52;70.47
18231;BME280;9240;49.966;21.994;2024-02-23T01:15:44;97229.31;;;8.54;70.20
18231;BME280;9240;49.966;21.994;2024-02-23T01:18:10;97234.34;;;8.55;70.21
18231;BME280;9240;49.966;21.994;2024-02-23T01:20:36;97235.00;;;8.57;70.15
18231;BME280;9240;49.966;21.994;2024-02-23T01:23:01;97235.69;;;8.59;69.48
18231;BME280;9240;49.966;21.994;2024-02-23T01:25:28;97231.16;;;8.61;69.72
18231;BME280;9240;49.966;21.994;2024-02-23T01:27:54;97235.38;;;8.62;69.82
18231;BME280;9240;49.966;21.994;2024-02-23T01:30:19;97233.59;;;8.63;69.71
18231;BME280;9240;49.966;21.994;2024-02-23T01:32:45;97235.38;;;8.62;69.37
18231;BME280;9240;49.966;21.994;2024-02-23T01:35:10;97236.19;;;8.63;69.16
18231;BME280;9240;49.966;21.994;2024-02-23T01:37:36;97227.31;;;8.65;69.47
18231;BME280;9240;49.966;21.994;2024-02-23T01:40:02;97239.31;;;8.67;68.95
18231;BME280;9240;49.966;21.994;2024-02-23T01:42:29;97235.91;;;8.66;69.05
18231;BME280;9240;49.966;21.994;2024-02-23T01:44:55;97240.13;;;8.67;69.19
18231;BME280;9240;49.966;21.994;2024-02-23T01:47:20;97239.16;;;8.68;69.38
18231;BME280;9240;49.966;21.994;2024-02-23T01:49:47;97224.41;;;8.69;69.28
18231;BME280;9240;49.966;21.994;2024-02-23T01:52:13;97227.03;;;8.69;69.14
18231;BME280;9240;49.966;21.994;2024-02-23T01:54:39;97213.88;;;8.70;69.23
18231;BME280;9240;49.966;21.994;2024-02-23T01:57:06;97196.84;;;8.68;69.03
18231;BME280;9240;49.966;21.994;2024-02-23T01:59:34;97195.03;;;8.68;69.23
18231;BME280;9240;49.966;21.994;2024-02-23T02:02:00;97207.06;;;8.69;69.00
18231;BME280;9240;49.966;21.994;2024-02-23T02:04:26;97207.06;;;8.69;68.69
18231;BME280;9240;49.966;21.994;2024-02-23T02:06:52;97210.47;;;8.70;68.83
18231;BME280;9240;49.966;21.994;2024-02-23T02:09:17;97229.44;;;8.70;68.74
18231;BME280;9240;49.966;21.994;2024-02-23T02:11:46;97224.09;;;8.72;68.36
18231;BME280;9240;49.966;21.994;2024-02-23T02:14:12;97236.94;;;8.73;68.20
18231;BME280;9240;49.966;21.994;2024-02-23T02:16:39;97230.63;;;8.76;68.33
18231;BME280;9240;49.966;21.994;2024-02-23T02:19:05;97239.25;;;8.76;68.27
18231;BME280;9240;49.966;21.994;2024-02-23T02:21:31;97241.00;;;8.76;68.15
18231;BME280;9240;49.966;21.994;2024-02-23T02:23:56;97241.69;;;8.78;68.29
18231;BME280;9240;49.966;21.994;2024-02-23T02:26:22;97227.06;;;8.77;67.95
18231;BME280;9240;49.966;21.994;2024-02-23T02:28:47;97231.47;;;8.76;67.74
18231;BME280;9240;49.966;21.994;2024-02-23T02:31:13;97218.31;;;8.78;67.83
18231;BME280;9240;49.966;21.994;2024-02-23T02:33:41;97206.97;;;8.79;67.71
18231;BME280;9240;49.966;21.994;2024-02-23T02:36:07;97222.53;;;8.79;67.52
18231;BME280;9240;49.966;21.994;2024-02-23T02:38:32;97239.59;;;8.81;67.66
18231;BME280;9240;49.966;21.994;2024-02-23T02:40:58;97241.22;;;8.83;67.63
18231;BME280;9240;49.966;21.994;2024-02-23T02:43:24;97245.63;;;8.82;67.41
18231;BME280;9240;49.966;21.994;2024-02-23T02:45:49;97242.06;;;8.83;67.04
18231;BME280;9240;49.966;21.994;2024-02-23T02:48:15;97239.47;;;8.83;67.43
18231;BME280;9240;49.966;21.994;2024-02-23T02:50:42;97233.44;;;8.83;67.01
18231;BME280;9240;49.966;21.994;2024-02-23T02:53:07;97244.78;;;8.81;67.26
18231;BME280;9240;49.966;21.994;2024-02-23T02:55:33;97241.53;;;8.79;67.35
18231;BME280;9240;49.966;21.994;2024-02-23T02:57:59;97250.28;;;8.78;67.11
18231;BME280;9240;49.966;21.994;2024-02-23T03:00:24;97243.47;;;8.77;67.18
18231;BME280;9240;49.966;21.994;2024-02-23T03:02:50;97252.72;;;8.80;67.10
18231;BME280;9240;49.966;21.994;2024-02-23T03:05:15;97245.91;;;8.79;67.01
18231;BME280;9240;49.966;21.994;2024-02-23T03:07:42;97253.69;;;8.79;66.96
18231;BME280;9240;49.966;21.994;2024-02-23T03:10:08;97247.53;;;8.80;67.03
18231;BME280;9240;49.966;21.994;2024-02-23T03:12:34;97255.16;;;8.81;66.63
18231;BME280;9240;49.966;21.994;2024-02-23T03:14:59;97246.56;;;8.81;66.43
18231;BME280;9240;49.966;21.994;2024-02-23T03:17:25;97244.78;;;8.81;66.58
18231;BME280;9240;49.966;21.994;2024-02-23T03:19:50;97228.41;;;8.81;66.78
18231;BME280;9240;49.966;21.994;2024-02-23T03:22:16;97236.34;;;8.79;66.52
18231;BME280;9240;49.966;21.994;2024-02-23T03:24:43;97231.16;;;8.79;66.28
18231;BME280;9240;49.966;21.994;2024-02-23T03:27:09;97225.97;;;8.79;66.57
18231;BME280;9240;49.966;21.994;2024-02-23T03:29:34;97240.72;;;8.79;66.42
18231;BME280;9240;49.966;21.994;2024-02-23T03:32:00;97233.09;;;8.77;66.52
18231;BME280;9240;49.966;21.994;2024-02-23T03:34:25;97230.63;;;8.76;66.65
18231;BME280;9240;49.966;21.994;2024-02-23T03:36:51;97237.44;;;8.77;66.54
18231;BME280;9240;49.966;21.994;2024-02-23T03:39:17;97253.97;;;8.76;66.52
18231;BME280;9240;49.966;21.994;2024-02-23T03:41:44;97253.97;;;8.76;66.21
18231;BME280;9240;49.966;21.994;2024-02-23T03:44:09;97254.94;;;8.75;66.32
18231;BME280;9240;49.966;21.994;2024-02-23T03:46:35;97261.25;;;8.72;66.21
18231;BME280;9240;49.966;21.994;2024-02-23T03:49:00;97259.63;;;8.71;66.63
18231;BME280;9240;49.966;21.994;2024-02-23T03:51:26;97270.97;;;8.70;66.59
18231;BME280;9240;49.966;21.994;2024-02-23T03:53:51;97257.19;;;8.70;66.51
18231;BME280;9240;49.966;21.994;2024-02-23T03:56:17;97271.25;;;8.67;66.30
18231;BME280;9240;49.966;21.994;2024-02-23T03:58:44;97266.22;;;8.65;66.89
18231;BME280;9240;49.966;21.994;2024-02-23T04:01:09;97259.53;;;8.63;67.08
18231;BME280;9240;49.966;21.994;2024-02-23T04:03:35;97271.19;;;8.59;67.08
18231;BME280;9240;49.966;21.994;2024-02-23T04:06:00;97272.97;;;8.58;67.20
18231;BME280;9240;49.966;21.994;2024-02-23T04:08:26;97279.28;;;8.56;67.27
18231;BME280;9240;49.966;21.994;2024-02-23T04:10:52;97270.97;;;8.52;67.21
18231;BME280;9240;49.966;21.994;2024-02-23T04:13:17;97266.06;;;8.49;67.54
18231;BME280;9240;49.966;21.994;2024-02-23T04:15:44;97267.28;;;8.45;67.73
18231;BME280;9240;49.966;21.994;2024-02-23T04:18:10;97268.41;;;8.42;68.34
18231;BME280;9240;49.966;21.994;2024-02-23T04:20:35;97266.91;;;8.40;68.46
18231;BME280;9240;49.966;21.994;2024-02-23T04:23:01;97261.72;;;8.40;68.49
18231;BME280;9240;49.966;21.994;2024-02-23T04:25:26;97268.81;;;8.38;68.60
18231;BME280;9240;49.966;21.994;2024-02-23T04:27:52;97262.69;;;8.39;68.50
18231;BME280;9240;49.966;21.994;2024-02-23T04:30:18;97256.03;;;8.36;68.46
18231;BME280;9240;49.966;21.994;2024-02-23T04:32:45;97261.22;;;8.36;68.58
18231;BME280;9240;49.966;21.994;2024-02-23T04:35:10;97271.75;;;8.34;68.45
18231;BME280;9240;49.966;21.994;2024-02-23T04:37:36;97266.69;;;8.33;68.60
18231;BME280;9240;49.966;21.994;2024-02-23T04:40:02;97264.09;;;8.33;69.03
18231;BME280;9240;49.966;21.994;2024-02-23T04:42:27;97258.91;;;8.33;68.90
18231;BME280;9240;49.966;21.994;2024-02-23T04:44:53;97262.44;;;8.32;69.11
18231;BME280;9240;49.966;21.994;2024-02-23T04:47:18;97258.91;;;8.33;69.16
18231;BME280;9240;49.966;21.994;2024-02-23T04:49:45;97270.91;;;8.34;68.78
18231;BME280;9240;49.966;21.994;2024-02-23T04:52:11;97267.50;;;8.33;69.19
18231;BME280;9240;49.966;21.994;2024-02-23T04:54:36;97261.66;;;8.31;69.23
18231;BME280;9240;49.966;21.994;2024-02-23T04:57:02;97262.59;;;8.30;69.19
18231;BME280;9240;49.966;21.994;2024-02-23T04:59:28;97270.38;;;8.30;68.92
18231;BME280;9240;49.966;21.994;2024-02-23T05:01:53;97261.94;;;8.28;69.02
18231;BME280;9240;49.966;21.994;2024-02-23T05:04:19;97257.88;;;8.26;69.38
18231;BME280;9240;49.966;21.994;2024-02-23T05:06:46;97258.66;;;8.26;69.46
18231;BME280;9240;49.966;21.994;2024-02-23T05:09:11;97264.97;;;8.24;69.74
18231;BME280;9240;49.966;21.994;2024-02-23T05:11:37;97264.31;;;8.22;69.73
18231;BME280;9240;49.966;21.994;2024-02-23T05:14:03;97255.84;;;8.19;69.77
18231;BME280;9240;49.966;21.994;2024-02-23T05:16:28;97260.22;;;8.19;70.57
18231;BME280;9240;49.966;21.994;2024-02-23T05:18:54;97260.50;;;8.16;70.36
18231;BME280;9240;49.966;21.994;2024-02-23T05:21:19;97263.91;;;8.16;70.74
18231;BME280;9240;49.966;21.994;2024-02-23T05:23:46;97260.50;;;8.16;70.84
18231;BME280;9240;49.966;21.994;2024-02-23T05:26:12;97263.91;;;8.16;70.04
18231;BME280;9240;49.966;21.994;2024-02-23T05:28:38;97273.47;;;8.16;70.26
18231;BME280;9240;49.966;21.994;2024-02-23T05:31:03;97268.28;;;8.16;70.80
18231;BME280;9240;49.966;21.994;2024-02-23T05:33:29;97271.00;;;8.14;70.87
18231;BME280;9240;49.966;21.994;2024-02-23T05:35:55;97279.63;;;8.15;70.65
18231;BME280;9240;49.966;21.994;2024-02-23T05:38:20;97288.47;;;8.12;71.11
18231;BME280;9240;49.966;21.994;2024-02-23T05:40:47;97288.63;;;8.11;70.75
18231;BME280;9240;49.966;21.994;2024-02-23T05:43:13;97284.28;;;8.11;70.93
18231;BME280;9240;49.966;21.994;2024-02-23T05:45:38;97286.19;;;8.09;71.26
18231;BME280;9240;49.966;21.994;2024-02-23T05:48:04;97288.13;;;8.07;71.22
18231;BME280;9240;49.966;21.994;2024-02-23T05:50:30;97278.56;;;8.08;70.96
18231;BME280;9240;49.966;21.994;2024-02-23T05:52:55;97282.09;;;8.07;71.17
18231;BME280;9240;49.966;21.994;2024-02-23T05:55:21;97299.44;;;8.06;71.43
18231;BME280;9240;49.966;21.994;2024-02-23T05:57:48;97290.03;;;8.05;71.22
18231;BME280;9240;49.966;21.994;2024-02-23T06:00:14;97296.97;;;8.04;71.27
18231;BME280;9240;49.966;21.994;2024-02-23T06:02:40;97290.84;;;8.05;71.67
18231;BME280;9240;49.966;21.994;2024-02-23T06:05:06;97306.53;;;8.04;71.37
18231;BME280;9240;49.966;21.994;2024-02-23T06:07:31;97308.47;;;8.02;71.50
18231;BME280;9240;49.966;21.994;2024-02-23T06:09:57;97311.22;;;8.00;71.75
18231;BME280;9240;49.966;21.994;2024-02-23T06:12:24;97307.94;;;7.98;71.74
18231;BME280;9240;49.966;21.994;2024-02-23T06:14:51;97309.69;;;7.98;72.15
18231;BME280;9240;49.966;21.994;2024-02-23T06:17:17;97319.38;;;7.96;71.64
18231;BME280;9240;49.966;21.994;2024-02-23T06:19:42;97327.31;;;7.94;72.30
18231;BME280;9240;49.966;21.994;2024-02-23T06:22:08;97323.94;;;7.94;72.06
18231;BME280;9240;49.966;21.994;2024-02-23T06:24:33;97335.91;;;7.95;72.32
18231;BME280;9240;49.966;21.994;2024-02-23T06:26:59;97313.41;;;7.95;72.08
18231;BME280;9240;49.966;21.994;2024-02-23T06:29:24;97324.56;;;7.96;72.44
18231;BME280;9240;49.966;21.994;2024-02-23T06:31:51;97340.13;;;7.96;72.78
18231;BME280;9240;49.966;21.994;2024-02-23T06:34:17;97331.69;;;7.94;73.06
18231;BME280;9240;49.966;21.994;2024-02-23T06:36:43;97327.59;;;7.91;73.46
18231;BME280;9240;49.966;21.994;2024-02-23T06:39:08;97353.94;;;7.86;73.76
18231;BME280;9240;49.966;21.994;2024-02-23T06:41:34;97354.22;;;7.83;74.19
18231;BME280;9240;49.966;21.994;2024-02-23T06:44:00;97350.94;;;7.81;74.79
18231;BME280;9240;49.966;21.994;2024-02-23T06:46:26;97353.69;;;7.80;74.88
18231;BME280;9240;49.966;21.994;2024-02-23T06:48:53;97353.00;;;7.78;74.96
18231;BME280;9240;49.966;21.994;2024-02-23T06:51:18;97358.34;;;7.76;75.81
18231;BME280;9240;49.966;21.994;2024-02-23T06:53:44;97365.56;;;7.72;75.96
18231;BME280;9240;49.966;21.994;2024-02-23T06:56:10;97357.00;;;7.72;76.00
18231;BME280;9240;49.966;21.994;2024-02-23T06:58:35;97370.06;;;7.70;76.37
18231;BME280;9240;49.966;21.994;2024-02-23T07:01:01;97378.66;;;7.71;76.45
18231;BME280;9240;49.966;21.994;2024-02-23T07:03:26;97372.66;;;7.70;76.76
18231;BME280;9240;49.966;21.994;2024-02-23T07:05:53;97378.66;;;7.71;76.48
18231;BME280;9240;49.966;21.994;2024-02-23T07:08:19;97392.44;;;7.71;76.46
18231;BME280;9240;49.966;21.994;2024-02-23T07:10:44;97398.44;;;7.72;76.88
18231;BME280;9240;49.966;21.994;2024-02-23T07:13:10;97407.84;;;7.73;76.67
18231;BME280;9240;49.966;21.994;2024-02-23T07:15:35;97405.25;;;7.73;77.16
18231;BME280;9240;49.966;21.994;2024-02-23T07:18:01;97414.78;;;7.72;77.42
18231;BME280;9240;49.966;21.994;2024-02-23T07:20:27;97413.03;;;7.73;77.55
18231;BME280;9240;49.966;21.994;2024-02-23T07:22:54;97421.63;;;7.73;77.60
18231;BME280;9240;49.966;21.994;2024-02-23T07:25:20;97426.00;;;7.73;77.71
18231;BME280;9240;49.966;21.994;2024-02-23T07:27:46;97433.88;;;7.71;77.88
18231;BME280;9240;49.966;21.994;2024-02-23T07:30:13;97430.34;;;7.72;78.31
18231;BME280;9240;49.966;21.994;2024-02-23T07:32:38;97443.28;;;7.72;78.23
18231;BME280;9240;49.966;21.994;2024-02-23T07:35:04;97444.41;;;7.70;78.17
18231;BME280;9240;49.966;21.994;2024-02-23T07:37:30;97445.50;;;7.67;78.57
18231;BME280;9240;49.966;21.994;2024-02-23T07:39:57;97447.41;;;7.65;79.32
18231;BME280;9240;49.966;21.994;2024-02-23T07:42:22;97450.94;;;7.64;79.59
18231;BME280;9240;49.966;21.994;2024-02-23T07:44:48;97453.53;;;7.64;79.55
18231;BME280;9240;49.966;21.994;2024-02-23T07:47:14;97461.31;;;7.64;79.87
18231;BME280;9240;49.966;21.994;2024-02-23T07:49:39;97452.72;;;7.64;80.25
18231;BME280;9240;49.966;21.994;2024-02-23T07:52:05;97463.91;;;7.64;80.30
18231;BME280;9240;49.966;21.994;2024-02-23T07:54:31;97470.84;;;7.64;80.85
18231;BME280;9240;49.966;21.994;2024-02-23T07:56:58;97476.84;;;7.64;81.01
18231;BME280;9240;49.966;21.994;2024-02-23T07:59:23;97469.88;;;7.65;81.32
18231;BME280;9240;49.966;21.994;2024-02-23T08:01:49;97467.03;;;7.68;81.40
18231;BME280;9240;49.966;21.994;2024-02-23T08:04:14;97476.44;;;7.69;81.40
18231;BME280;9240;49.966;21.994;2024-02-23T08:06:41;97478.75;;;7.72;81.72
18231;BME280;9240;49.966;21.994;2024-02-23T08:09:06;97481.88;;;7.75;82.07
18231;BME280;9240;49.966;21.994;2024-02-23T08:11:32;97489.13;;;7.82;82.30
18231;BME280;9240;49.966;21.994;2024-02-23T08:13:59;97476.84;;;7.84;81.97
18231;BME280;9240;49.966;21.994;2024-02-23T08:16:24;97483.53;;;7.86;82.31
18231;BME280;9240;49.966;21.994;2024-02-23T08:18:50;97489.13;;;7.92;81.91
18231;BME280;9240;49.966;21.994;2024-02-23T08:21:16;97484.31;;;7.97;82.25
18231;BME280;9240;49.966;21.994;2024-02-23T08:23:41;97491.03;;;7.99;82.17
18231;BME280;9240;49.966;21.994;2024-02-23T08:26:07;97491.41;;;8.04;81.91
18231;BME280;9240;49.966;21.994;2024-02-23T08:28:32;97492.66;;;8.10;82.42
18231;BME280;9240;49.966;21.994;2024-02-23T08:30:59;97490.31;;;8.17;82.47
18231;BME280;9240;49.966;21.994;2024-02-23T08:33:25;97492.34;;;8.23;81.87
18231;BME280;9240;49.966;21.994;2024-02-23T08:35:50;97494.53;;;8.28;82.39
18231;BME280;9240;49.966;21.994;2024-02-23T08:38:16;97496.00;;;8.30;82.21
18231;BME280;9240;49.966;21.994;2024-02-23T08:40:42;97500.09;;;8.33;81.92
18231;BME280;9240;49.966;21.994;2024-02-23T08:43:07;97501.59;;;8.35;82.29
18231;BME280;9240;49.966;21.994;2024-02-23T08:48:02;97504.81;;;8.47;81.82
18231;BME280;9240;49.966;21.994;2024-02-23T08:50:27;97505.41;;;8.51;82.01
18231;BME280;9240;49.966;21.994;2024-02-23T08:52:53;97505.78;;;8.56;82.05
18231;BME280;9240;49.966;21.994;2024-02-23T08:55:18;97506.88;;;8.63;81.58
18231;BME280;9240;49.966;21.994;2024-02-23T08:57:44;97501.91;;;8.70;81.42
18231;BME280;9240;49.966;21.994;2024-02-23T09:00:11;97498.91;;;8.75;81.52
18231;BME280;9240;49.966;21.994;2024-02-23T09:02:36;97510.47;;;8.80;81.11
18231;BME280;9240;49.966;21.994;2024-02-23T09:05:04;97500.66;;;8.84;81.21
18231;BME280;9240;49.966;21.994;2024-02-23T09:07:30;97498.41;;;8.89;81.31
18231;BME280;9240;49.966;21.994;2024-02-23T09:09:56;97497.34;;;8.92;81.05
18231;BME280;9240;49.966;21.994;2024-02-23T09:12:21;97498.38;;;8.99;81.05
18231;BME280;9240;49.966;21.994;2024-02-23T09:14:47;97500.25;;;9.07;80.90
18231;BME280;9240;49.966;21.994;2024-02-23T09:17:12;97492.56;;;9.15;80.57
18231;BME280;9240;49.966;21.994;2024-02-23T09:19:38;97501.69;;;9.19;80.10
18231;BME280;9240;49.966;21.994;2024-02-23T09:22:05;97497.31;;;9.20;80.24
18231;BME280;9240;49.966;21.994;2024-02-23T09:24:31;97501.38;;;9.22;79.76
18231;BME280;9240;49.966;21.994;2024-02-23T09:26:56;97485.50;;;9.25;79.61
18231;BME280;9240;49.966;21.994;2024-02-23T09:29:22;97490.81;;;9.34;79.21
18231;BME280;9240;49.966;21.994;2024-02-23T09:31:49;97491.72;;;9.43;79.23
18231;BME280;9240;49.966;21.994;2024-02-23T09:34:15;97495.94;;;9.44;78.95
18231;BME280;9240;49.966;21.994;2024-02-23T09:36:40;97491.41;;;9.46;78.82
18231;BME280;9240;49.966;21.994;2024-02-23T09:39:07;97500.53;;;9.50;78.68
18231;BME280;9240;49.966;21.994;2024-02-23T09:41:33;97495.88;;;9.53;78.22
18231;BME280;9240;49.966;21.994;2024-02-23T09:43:58;97495.19;;;9.51;78.13
18231;BME280;9240;49.966;21.994;2024-02-23T09:46:25;97495.34;;;9.50;77.80
18231;BME280;9240;49.966;21.994;2024-02-23T09:48:51;97497.06;;;9.59;77.28
18231;BME280;9240;49.966;21.994;2024-02-23T09:51:17;97504.63;;;9.70;76.86
18231;BME280;9240;49.966;21.994;2024-02-23T09:53:43;97506.63;;;9.77;76.57
18231;BME280;9240;49.966;21.994;2024-02-23T09:56:10;97504.94;;;9.85;76.26
18231;BME280;9240;49.966;21.994;2024-02-23T09:58:36;97504.53;;;9.98;75.93
18231;BME280;9240;49.966;21.994;2024-02-23T10:01:03;97498.63;;;10.14;75.65
18231;BME280;9240;49.966;21.994;2024-02-23T10:03:29;97514.22;;;10.32;75.16
18231;BME280;9240;49.966;21.994;2024-02-23T10:05:55;97506.97;;;10.44;74.76
18231;BME280;9240;49.966;21.994;2024-02-23T10:08:21;97504.81;;;10.58;74.56
18231;BME280;9240;49.966;21.994;2024-02-23T10:10:46;97503.69;;;10.69;73.89
18231;BME280;9240;49.966;21.994;2024-02-23T10:13:13;97507.69;;;10.81;73.38
18231;BME280;9240;49.966;21.994;2024-02-23T10:15:43;97511.81;;;10.92;73.17
18231;BME280;9240;49.966;21.994;2024-02-23T10:18:08;97524.22;;;11.06;72.78
18231;BME280;9240;49.966;21.994;2024-02-23T10:20:34;97521.63;;;11.15;72.30
18231;BME280;9240;49.966;21.994;2024-02-23T10:23:00;97523.97;;;11.26;71.83
18231;BME280;9240;49.966;21.994;2024-02-23T10:25:25;97522.69;;;11.38;71.22
18231;BME280;9240;49.966;21.994;2024-02-23T10:27:51;97532.50;;;11.53;70.96
18231;BME280;9240;49.966;21.994;2024-02-23T10:30:18;97527.47;;;11.60;70.43
18231;BME280;9240;49.966;21.994;2024-02-23T10:32:45;97538.41;;;11.72;70.10
18231;BME280;9240;49.966;21.994;2024-02-23T10:35:13;97541.00;;;11.72;69.88
18231;BME280;9240;49.966;21.994;2024-02-23T10:37:42;97547.69;;;11.66;69.80
18231;BME280;9240;49.966;21.994;2024-02-23T10:40:08;97556.13;;;11.60;69.86
18231;BME280;9240;49.966;21.994;2024-02-23T10:42:38;97556.78;;;11.62;69.50
18231;BME280;9240;49.966;21.994;2024-02-23T10:45:04;97562.81;;;11.62;69.44
18231;BME280;9240;49.966;21.994;2024-02-23T10:47:32;97555.34;;;11.59;69.28
18231;BME280;9240;49.966;21.994;2024-02-23T10:50:00;97566.06;;;11.56;69.10
18231;BME280;9240;49.966;21.994;2024-02-23T10:52:26;97565.91;;;11.58;69.04
18231;BME280;9240;49.966;21.994;2024-02-23T10:54:52;97568.03;;;11.54;68.99
18231;BME280;9240;49.966;21.994;2024-02-23T10:57:19;97568.50;;;11.58;68.98
18231;BME280;9240;49.966;21.994;2024-02-23T10:59:45;97571.63;;;11.61;68.62
18231;BME280;9240;49.966;21.994;2024-02-23T11:02:11;97580.75;;;11.57;68.67
18231;BME280;9240;49.966;21.994;2024-02-23T11:04:38;97569.97;;;11.52;68.65
18231;BME280;9240;49.966;21.994;2024-02-23T11:07:13;97573.19;;;11.46;68.39
18231;BME280;9240;49.966;21.994;2024-02-23T11:09:38;97567.66;;;11.41;68.23
18231;BME280;9240;49.966;21.994;2024-02-23T11:12:05;97574.09;;;11.28;68.31
18231;BME280;9240;49.966;21.994;2024-02-23T11:14:31;97578.63;;;11.18;68.50
18231;BME280;9240;49.966;21.994;2024-02-23T11:16:57;97584.13;;;11.06;68.58
18231;BME280;9240;49.966;21.994;2024-02-23T11:19:32;97580.81;;;10.96;68.85
18231;BME280;9240;49.966;21.994;2024-02-23T11:21:59;97584.06;;;10.90;68.84
18231;BME280;9240;49.966;21.994;2024-02-23T11:24:25;97580.41;;;10.83;68.81
18231;BME280;9240;49.966;21.994;2024-02-23T11:26:56;97578.13;;;10.80;69.11
18231;BME280;9240;49.966;21.994;2024-02-23T11:29:21;97588.84;;;10.76;69.23
18231;BME280;9240;49.966;21.994;2024-02-23T11:31:51;97588.81;;;10.68;69.25
18231;BME280;9240;49.966;21.994;2024-02-23T11:34:22;97580.63;;;10.63;69.34
18231;BME280;9240;49.966;21.994;2024-02-23T11:36:50;97582.06;;;10.57;69.62
18231;BME280;9240;49.966;21.994;2024-02-23T11:39:17;97581.03;;;10.50;69.66
18231;BME280;9240;49.966;21.994;2024-02-23T11:41:44;97592.44;;;10.49;69.69
18231;BME280;9240;49.966;21.994;2024-02-23T11:44:13;97590.25;;;10.44;69.83
18231;BME280;9240;49.966;21.994;2024-02-23T11:46:38;97583.41;;;10.43;69.99
18231;BME280;9240;49.966;21.994;2024-02-23T11:49:04;97589.59;;;10.42;70.10
18231;BME280;9240;49.966;21.994;2024-02-23T11:51:29;97592.50;;;10.39;70.16
18231;BME280;9240;49.966;21.994;2024-02-23T11:53:55;97597.97;;;10.36;70.26
18231;BME280;9240;49.966;21.994;2024-02-23T11:56:22;97595.97;;;10.30;70.39
18231;BME280;9240;49.966;21.994;2024-02-23T11:58:48;97601.19;;;10.30;70.52
18231;BME280;9240;49.966;21.994;2024-02-23T12:01:14;97589.66;;;10.32;70.49
18231;BME280;9240;49.966;21.994;2024-02-23T12:03:40;97593.19;;;10.41;70.46
18231;BME280;9240;49.966;21.994;2024-02-23T12:06:07;97585.25;;;10.51;70.21
18231;BME280;9240;49.966;21.994;2024-02-23T12:08:33;97600.78;;;10.61;70.06
18231;BME280;9240;49.966;21.994;2024-02-23T12:10:59;97595.34;;;10.72;69.81
18231;BME280;9240;49.966;21.994;2024-02-23T12:13:26;97595.91;;;10.84;69.60
18231;BME280;9240;49.966;21.994;2024-02-23T12:15:53;97596.09;;;10.91;69.22
18231;BME280;9240;49.966;21.994;2024-02-23T12:18:18;97594.00;;;10.95;69.03
18231;BME280;9240;49.966;21.994;2024-02-23T12:20:47;97594.16;;;10.93;68.81
18231;BME280;9240;49.966;21.994;2024-02-23T12:23:12;97595.63;;;10.96;68.77
18231;BME280;9240;49.966;21.994;2024-02-23T12:25:38;97600.00;;;10.95;68.73
18231;BME280;9240;49.966;21.994;2024-02-23T12:28:04;97602.28;;;10.90;68.67
18231;BME280;9240;49.966;21.994;2024-02-23T12:30:31;97599.78;;;10.80;68.73
18231;BME280;9240;49.966;21.994;2024-02-23T12:33:03;97597.78;;;10.74;68.66
18231;BME280;9240;49.966;21.994;2024-02-23T12:35:28;97599.88;;;10.70;68.82
18231;BME280;9240;49.966;21.994;2024-02-23T12:37:54;97602.94;;;10.66;68.86
18231;BME280;9240;49.966;21.994;2024-02-23T12:40:20;97602.41;;;10.62;68.85
18231;BME280;9240;49.966;21.994;2024-02-23T12:42:45;97599.81;;;10.62;68.88
18231;BME280;9240;49.966;21.994;2024-02-23T12:45:11;97594.78;;;10.60;68.97
18231;BME280;9240;49.966;21.994;2024-02-23T12:47:38;97611.34;;;10.59;68.87
18231;BME280;9240;49.966;21.994;2024-02-23T12:50:04;97610.84;;;10.56;68.84
18231;BME280;9240;49.966;21.994;2024-02-23T12:52:30;97603.84;;;10.56;68.94
18231;BME280;9240;49.966;21.994;2024-02-23T12:54:55;97610.03;;;10.55;68.96
18231;BME280;9240;49.966;21.994;2024-02-23T12:57:21;97619.47;;;10.56;69.02
18231;BME280;9240;49.966;21.994;2024-02-23T12:59:46;97614.13;;;10.58;69.13
18231;BME280;9240;49.966;21.994;2024-02-23T13:02:12;97617.69;;;10.57;69.16